createdAt,value
2018-11-03T00:00:39.503Z,5.60
2018-11-03T00:01:13.610Z,5.50
2018-11-03T00:01:47.708Z,5.50
2018-11-03T00:02:21.844Z,5.50
2018-11-03T00:02:55.936Z,5.50
2018-11-03T00:03:30.758Z,5.50
2018-11-03T00:04:04.886Z,5.50
2018-11-03T00:04:39.382Z,5.50
2018-11-03T00:05:14.271Z,5.50
2018-11-03T00:05:48.502Z,5.50
2018-11-03T00:06:23.242Z,5.50
2018-11-03T00:06:57.560Z,5.50
2018-11-03T00:07:31.901Z,5.50
2018-11-03T00:08:06.350Z,5.40
2018-11-03T00:08:40.434Z,5.50
2018-11-03T00:09:14.908Z,5.50
2018-11-03T00:09:49.008Z,5.40
2018-11-03T00:10:23.418Z,5.50
2018-11-03T00:10:57.854Z,5.50
2018-11-03T00:11:32.308Z,5.50
2018-11-03T00:12:06.740Z,5.40
2018-11-03T00:12:40.840Z,5.40
2018-11-03T00:13:14.994Z,5.50
2018-11-03T00:13:49.123Z,5.40
2018-11-03T00:14:23.441Z,5.40
2018-11-03T00:14:57.546Z,5.40
2018-11-03T00:15:31.850Z,5.40
2018-11-03T00:16:06.492Z,5.40
2018-11-03T00:16:40.810Z,5.40
2018-11-03T00:17:14.926Z,5.40
2018-11-03T00:17:49.238Z,5.40
2018-11-03T00:18:23.340Z,5.40
2018-11-03T00:18:57.431Z,5.40
2018-11-03T00:19:31.770Z,5.40
2018-11-03T00:20:06.925Z,5.40
2018-11-03T00:20:41.256Z,5.40
2018-11-03T00:21:15.440Z,5.40
2018-11-03T00:21:49.738Z,5.40
2018-11-03T00:22:23.805Z,5.30
2018-11-03T00:22:57.968Z,5.40
2018-11-03T00:23:32.072Z,5.40
2018-11-03T00:24:06.172Z,5.40
2018-11-03T00:24:40.294Z,5.30
2018-11-03T00:25:14.404Z,5.30
2018-11-03T00:25:48.532Z,5.30
2018-11-03T00:26:22.804Z,5.30
2018-11-03T00:26:56.904Z,5.30
2018-11-03T00:27:31.040Z,5.30
2018-11-03T00:28:05.821Z,5.30
2018-11-03T00:28:39.912Z,5.30
2018-11-03T00:29:14.166Z,5.30
2018-11-03T00:29:48.629Z,5.30
2018-11-03T00:30:23.103Z,5.30
2018-11-03T00:30:57.298Z,5.30
2018-11-03T00:31:31.773Z,5.20
2018-11-03T00:32:05.940Z,5.20
2018-11-03T00:32:40.089Z,5.30
2018-11-03T00:33:14.378Z,5.20
2018-11-03T00:33:48.451Z,5.20
2018-11-03T00:34:22.549Z,5.20
2018-11-03T00:34:56.988Z,5.20
2018-11-03T00:35:31.097Z,5.20
2018-11-03T00:36:06.338Z,5.20
2018-11-03T00:36:40.764Z,5.20
2018-11-03T00:37:14.998Z,5.20
2018-11-03T00:37:50.506Z,5.20
2018-11-03T00:38:28.060Z,5.20
2018-11-03T00:39:03.154Z,5.20
2018-11-03T00:39:38.203Z,5.20
2018-11-03T00:40:14.372Z,5.20
2018-11-03T00:40:48.816Z,5.20
2018-11-03T00:41:23.172Z,5.20
2018-11-03T00:41:57.650Z,5.20
2018-11-03T00:42:32.159Z,5.20
2018-11-03T00:43:06.613Z,5.20
2018-11-03T00:43:41.097Z,5.20
2018-11-03T00:44:15.431Z,5.10
2018-11-03T00:44:49.722Z,5.20
2018-11-03T00:45:24.188Z,5.20
2018-11-03T00:45:58.632Z,5.20
2018-11-03T00:46:33.120Z,5.20
2018-11-03T00:47:07.303Z,5.20
2018-11-03T00:47:42.680Z,5.20
2018-11-03T00:48:17.141Z,5.10
2018-11-03T00:48:51.420Z,5.10
2018-11-03T00:49:25.902Z,5.20
2018-11-03T00:50:00.204Z,5.20
2018-11-03T00:50:34.734Z,5.20
2018-11-03T00:51:09.354Z,5.20
2018-11-03T00:51:43.822Z,5.20
2018-11-03T00:52:18.237Z,5.20
2018-11-03T00:52:52.400Z,5.20
2018-11-03T00:53:26.540Z,5.20
2018-11-03T00:54:01.337Z,5.20
2018-11-03T00:54:35.478Z,5.20
2018-11-03T00:55:10.772Z,5.20
2018-11-03T00:55:45.182Z,5.20
2018-11-03T00:56:19.306Z,5.20
2018-11-03T00:56:53.412Z,5.20
2018-11-03T00:57:27.880Z,5.20
2018-11-03T00:58:02.278Z,5.20
2018-11-03T00:58:36.404Z,5.20
2018-11-03T00:59:10.524Z,5.10
2018-11-03T00:59:44.626Z,5.10
2018-11-03T01:00:19.338Z,5.20
2018-11-03T01:00:53.786Z,5.20
2018-11-03T01:01:27.853Z,5.10
2018-11-03T01:02:01.944Z,5.10
2018-11-03T01:02:36.069Z,5.10
2018-11-03T01:03:10.524Z,5.10
2018-11-03T01:03:44.664Z,5.10
2018-11-03T01:04:18.766Z,5.10
2018-11-03T01:04:52.890Z,5.10
2018-11-03T01:05:27.152Z,5.10
2018-11-03T01:06:02.189Z,5.10
2018-11-03T01:06:36.325Z,5.10
2018-11-03T01:07:10.439Z,5.10
2018-11-03T01:07:45.323Z,5.00
2018-11-03T01:08:19.764Z,5.10
2018-11-03T01:08:54.458Z,5.00
2018-11-03T01:09:28.792Z,5.00
2018-11-03T01:10:03.143Z,5.00
2018-11-03T01:10:37.209Z,5.00
2018-11-03T01:11:11.512Z,5.00
2018-11-03T01:11:45.803Z,5.00
2018-11-03T01:12:19.888Z,5.00
2018-11-03T01:12:53.988Z,5.00
2018-11-03T01:13:28.434Z,5.00
2018-11-03T01:14:02.846Z,5.00
2018-11-03T01:14:36.952Z,5.00
2018-11-03T01:15:13.716Z,5.00
2018-11-03T01:15:47.772Z,4.90
2018-11-03T01:16:21.865Z,4.90
2018-11-03T01:16:56.050Z,5.00
2018-11-03T01:17:30.148Z,4.90
2018-11-03T01:18:04.247Z,4.90
2018-11-03T01:18:38.382Z,4.90
2018-11-03T01:19:12.472Z,4.90
2018-11-03T01:19:46.585Z,4.90
2018-11-03T01:20:20.715Z,4.90
2018-11-03T01:20:55.358Z,4.90
2018-11-03T01:21:29.473Z,4.90
2018-11-03T01:22:03.577Z,4.90
2018-11-03T01:22:37.704Z,4.90
2018-11-03T01:23:11.937Z,4.90
2018-11-03T01:23:46.126Z,4.90
2018-11-03T01:24:20.343Z,4.90
2018-11-03T01:24:54.647Z,4.90
2018-11-03T01:25:28.774Z,4.90
2018-11-03T01:26:02.908Z,4.90
2018-11-03T01:26:37.033Z,4.90
2018-11-03T01:27:11.494Z,4.90
2018-11-03T01:28:26.080Z,4.90
2018-11-03T01:29:00.508Z,4.90
2018-11-03T01:29:34.607Z,4.90
2018-11-03T01:30:10.612Z,4.90
2018-11-03T01:30:44.724Z,4.80
2018-11-03T01:31:18.855Z,4.80
2018-11-03T01:31:52.989Z,4.80
2018-11-03T01:32:27.658Z,4.80
2018-11-03T01:33:01.919Z,4.80
2018-11-03T01:33:36.023Z,4.80
2018-11-03T01:34:10.104Z,4.80
2018-11-03T01:34:44.763Z,4.80
2018-11-03T01:35:18.859Z,4.80
2018-11-03T01:35:52.972Z,4.80
2018-11-03T01:36:27.126Z,4.70
2018-11-03T01:37:01.225Z,4.80
2018-11-03T01:37:35.544Z,4.80
2018-11-03T01:38:09.660Z,4.80
2018-11-03T01:38:44.088Z,4.80
2018-11-03T01:39:18.173Z,4.80
2018-11-03T01:39:52.266Z,4.80
2018-11-03T01:40:26.333Z,4.80
2018-11-03T01:41:00.410Z,4.80
2018-11-03T01:41:34.540Z,4.70
2018-11-03T01:42:09.296Z,4.80
2018-11-03T01:42:44.062Z,4.70
2018-11-03T01:43:18.175Z,4.70
2018-11-03T01:43:52.280Z,4.70
2018-11-03T01:44:26.601Z,4.70
2018-11-03T01:45:01.504Z,4.70
2018-11-03T01:45:35.781Z,4.70
2018-11-03T01:46:09.856Z,4.70
2018-11-03T01:46:44.370Z,4.70
2018-11-03T01:47:18.813Z,4.70
2018-11-03T01:47:53.229Z,4.70
2018-11-03T01:48:27.342Z,4.70
2018-11-03T01:49:01.471Z,4.70
2018-11-03T01:49:35.580Z,4.70
2018-11-03T01:50:11.356Z,4.70
2018-11-03T01:50:45.451Z,4.70
2018-11-03T01:51:19.581Z,4.70
2018-11-03T01:51:53.696Z,4.60
2018-11-03T01:52:28.639Z,4.70
2018-11-03T01:53:03.008Z,4.70
2018-11-03T01:53:37.363Z,4.70
2018-11-03T01:54:11.613Z,4.70
2018-11-03T01:54:46.055Z,4.70
2018-11-03T01:55:20.146Z,4.60
2018-11-03T01:55:54.238Z,4.60
2018-11-03T01:56:28.749Z,4.60
2018-11-03T01:57:02.885Z,4.60
2018-11-03T01:57:37.951Z,4.60
2018-11-03T01:58:12.042Z,4.60
2018-11-03T01:58:46.775Z,4.60
2018-11-03T01:59:20.863Z,4.60
2018-11-03T01:59:54.961Z,4.60
2018-11-03T02:00:29.051Z,4.60
2018-11-03T02:01:03.179Z,4.60
2018-11-03T02:01:37.597Z,4.60
2018-11-03T02:02:11.905Z,4.60
2018-11-03T02:02:45.980Z,4.60
2018-11-03T02:03:20.621Z,4.60
2018-11-03T02:03:54.731Z,4.50
2018-11-03T02:04:29.185Z,4.60
2018-11-03T02:05:03.593Z,4.60
2018-11-03T02:05:37.999Z,4.60
2018-11-03T02:06:12.091Z,4.60
2018-11-03T02:06:46.217Z,4.60
2018-11-03T02:07:20.463Z,4.50
2018-11-03T02:07:54.546Z,4.50
2018-11-03T02:08:29.135Z,4.60
2018-11-03T02:09:04.576Z,4.50
2018-11-03T02:09:39.035Z,4.50
2018-11-03T02:10:13.309Z,4.50
2018-11-03T02:10:47.781Z,4.50
2018-11-03T02:11:21.873Z,4.50
2018-11-03T02:11:56.289Z,4.50
2018-11-03T02:12:30.391Z,4.50
2018-11-03T02:13:04.493Z,4.50
2018-11-03T02:13:38.925Z,4.40
2018-11-03T02:14:12.997Z,4.40
2018-11-03T02:14:47.119Z,4.40
2018-11-03T02:15:21.189Z,4.40
2018-11-03T02:15:55.603Z,4.40
2018-11-03T02:16:29.739Z,4.40
2018-11-03T02:17:03.826Z,4.40
2018-11-03T02:17:38.112Z,4.40
2018-11-03T02:18:12.209Z,4.40
2018-11-03T02:18:46.641Z,4.40
2018-11-03T02:19:20.771Z,4.30
2018-11-03T02:19:55.416Z,4.40
2018-11-03T02:20:29.529Z,4.30
2018-11-03T02:21:04.724Z,4.40
2018-11-03T02:21:38.855Z,4.40
2018-11-03T02:22:12.990Z,4.30
2018-11-03T02:22:47.113Z,4.30
2018-11-03T02:23:21.185Z,4.40
2018-11-03T02:23:55.413Z,4.40
2018-11-03T02:24:29.828Z,4.30
2018-11-03T02:25:03.945Z,4.40
2018-11-03T02:25:38.362Z,4.40
2018-11-03T02:26:19.389Z,4.40
2018-11-03T02:26:53.503Z,4.30
2018-11-03T02:27:27.590Z,4.40
2018-11-03T02:28:01.686Z,4.40
2018-11-03T02:28:36.085Z,4.40
2018-11-03T02:29:10.499Z,4.40
2018-11-03T02:29:44.574Z,4.40
2018-11-03T02:30:18.665Z,4.40
2018-11-03T02:30:53.084Z,4.40
2018-11-03T02:31:27.369Z,4.40
2018-11-03T02:32:01.476Z,4.30
2018-11-03T02:32:35.569Z,4.30
2018-11-03T02:33:09.710Z,4.30
2018-11-03T02:33:43.835Z,4.30
2018-11-03T02:34:17.905Z,4.30
2018-11-03T02:34:52.305Z,4.30
2018-11-03T02:35:26.951Z,4.30
2018-11-03T02:36:01.280Z,4.30
2018-11-03T02:36:35.911Z,4.30
2018-11-03T02:37:10.333Z,4.30
2018-11-03T02:37:44.521Z,4.30
2018-11-03T02:38:18.716Z,4.30
2018-11-03T02:38:52.989Z,4.30
2018-11-03T02:39:27.088Z,4.30
2018-11-03T02:40:01.189Z,4.20
2018-11-03T02:40:35.593Z,4.20
2018-11-03T02:41:09.969Z,4.30
2018-11-03T02:41:44.455Z,4.20
2018-11-03T02:42:18.533Z,4.30
2018-11-03T02:42:52.948Z,4.30
2018-11-03T02:43:27.059Z,4.20
2018-11-03T02:44:01.329Z,4.20
2018-11-03T02:44:36.078Z,4.20
2018-11-03T02:45:10.861Z,4.20
2018-11-03T02:45:45.157Z,4.20
2018-11-03T02:46:19.582Z,4.20
2018-11-03T02:46:53.660Z,4.20
2018-11-03T02:47:28.087Z,4.20
2018-11-03T02:48:02.157Z,4.20
2018-11-03T02:48:36.602Z,4.20
2018-11-03T02:49:10.723Z,4.20
2018-11-03T02:49:45.297Z,4.20
2018-11-03T02:50:19.712Z,4.20
2018-11-03T02:50:54.146Z,4.20
2018-11-03T02:51:28.617Z,4.20
2018-11-03T02:52:02.713Z,4.20
2018-11-03T02:52:36.856Z,4.20
2018-11-03T02:53:10.933Z,4.20
2018-11-03T02:53:45.051Z,4.20
2018-11-03T02:54:20.417Z,4.20
2018-11-03T02:54:54.521Z,4.20
2018-11-03T02:55:29.155Z,4.20
2018-11-03T02:56:03.609Z,4.20
2018-11-03T02:56:38.026Z,4.20
2018-11-03T02:57:12.119Z,4.20
2018-11-03T02:57:46.214Z,4.20
2018-11-03T02:58:20.429Z,4.20
2018-11-03T02:58:54.710Z,4.20
2018-11-03T02:59:28.989Z,4.20
2018-11-03T03:00:03.402Z,4.20
2018-11-03T03:00:37.701Z,4.20
2018-11-03T03:01:11.798Z,4.20
2018-11-03T03:01:46.107Z,4.20
2018-11-03T03:02:20.889Z,4.20
2018-11-03T03:02:55.351Z,4.20
2018-11-03T03:03:29.608Z,4.20
2018-11-03T03:04:04.065Z,4.20
2018-11-03T03:04:38.153Z,4.20
2018-11-03T03:05:12.218Z,4.20
2018-11-03T03:05:46.337Z,4.20
2018-11-03T03:06:20.460Z,4.20
2018-11-03T03:06:54.572Z,4.10
2018-11-03T03:07:29.017Z,4.10
2018-11-03T03:08:03.548Z,4.20
2018-11-03T03:08:38.174Z,4.10
2018-11-03T03:09:12.700Z,4.10
2018-11-03T03:09:46.797Z,4.10
2018-11-03T03:10:20.937Z,4.10
2018-11-03T03:10:55.052Z,4.10
2018-11-03T03:11:29.685Z,4.10
2018-11-03T03:12:04.363Z,4.10
2018-11-03T03:12:38.581Z,4.10
2018-11-03T03:13:12.879Z,4.10
2018-11-03T03:13:47.165Z,4.10
2018-11-03T03:14:22.183Z,4.10
2018-11-03T03:14:56.301Z,4.10
2018-11-03T03:15:30.848Z,4.10
2018-11-03T03:16:05.460Z,4.10
2018-11-03T03:16:39.789Z,4.10
2018-11-03T03:17:14.279Z,4.10
2018-11-03T03:17:48.567Z,4.10
2018-11-03T03:18:22.686Z,4.10
2018-11-03T03:18:57.011Z,4.10
2018-11-03T03:19:31.139Z,4.10
2018-11-03T03:20:06.927Z,4.10
2018-11-03T03:20:41.015Z,4.10
2018-11-03T03:21:15.141Z,4.10
2018-11-03T03:21:49.281Z,4.10
2018-11-03T03:22:23.385Z,4.10
2018-11-03T03:22:57.473Z,4.10
2018-11-03T03:23:31.605Z,4.10
2018-11-03T03:24:05.725Z,4.10
2018-11-03T03:24:39.841Z,4.10
2018-11-03T03:25:14.289Z,4.10
2018-11-03T03:25:48.395Z,4.10
2018-11-03T03:26:22.838Z,4.10
2018-11-03T03:26:56.939Z,4.10
2018-11-03T03:27:31.061Z,4.10
2018-11-03T03:28:06.179Z,4.10
2018-11-03T03:28:40.323Z,4.10
2018-11-03T03:29:14.694Z,4.10
2018-11-03T03:29:49.029Z,4.10
2018-11-03T03:30:23.144Z,4.10
2018-11-03T03:30:57.601Z,4.10
2018-11-03T03:31:31.710Z,4.10
2018-11-03T03:32:06.851Z,4.10
2018-11-03T03:32:42.118Z,4.10
2018-11-03T03:33:16.742Z,4.10
2018-11-03T03:33:50.860Z,4.10
2018-11-03T03:34:25.302Z,4.20
2018-11-03T03:35:02.699Z,4.20
2018-11-03T03:35:39.833Z,4.20
2018-11-03T03:36:14.297Z,4.20
2018-11-03T03:36:48.435Z,4.20
2018-11-03T03:37:22.573Z,4.20
2018-11-03T03:37:56.695Z,4.20
2018-11-03T03:38:30.995Z,4.20
2018-11-03T03:39:10.880Z,4.20
2018-11-03T03:39:44.984Z,4.20
2018-11-03T03:40:19.417Z,4.20
2018-11-03T03:40:54.140Z,4.20
2018-11-03T03:41:28.267Z,4.20
2018-11-03T03:42:04.027Z,4.20
2018-11-03T03:42:38.376Z,4.20
2018-11-03T03:43:12.497Z,4.20
2018-11-03T03:43:47.177Z,4.20
2018-11-03T03:44:24.072Z,4.20
2018-11-03T03:44:58.519Z,4.20
2018-11-03T03:45:32.692Z,4.20
2018-11-03T03:46:06.855Z,4.20
2018-11-03T03:46:41.928Z,4.20
2018-11-03T03:47:16.409Z,4.20
2018-11-03T03:47:50.878Z,4.20
2018-11-03T03:48:24.981Z,4.20
2018-11-03T03:49:01.974Z,4.30
2018-11-03T03:49:36.235Z,4.20
2018-11-03T03:50:11.409Z,4.30
2018-11-03T03:50:46.423Z,4.20
2018-11-03T03:51:20.529Z,4.30
2018-11-03T03:51:55.796Z,4.20
2018-11-03T03:52:30.211Z,4.30
2018-11-03T03:53:04.771Z,4.30
2018-11-03T03:53:38.864Z,4.20
2018-11-03T03:54:13.123Z,4.20
2018-11-03T03:54:47.530Z,4.20
2018-11-03T03:55:22.002Z,4.20
2018-11-03T03:55:56.465Z,4.20
2018-11-03T03:56:30.800Z,4.20
2018-11-03T03:57:06.813Z,4.20
2018-11-03T03:57:41.369Z,4.20
2018-11-03T03:58:15.953Z,4.20
2018-11-03T03:58:50.273Z,4.30
2018-11-03T03:59:24.389Z,4.30
2018-11-03T03:59:58.701Z,4.30
2018-11-03T04:00:34.355Z,4.20
2018-11-03T04:01:09.164Z,4.30
2018-11-03T04:01:43.851Z,4.20
2018-11-03T04:02:18.704Z,4.30
2018-11-03T04:02:52.810Z,4.30
2018-11-03T04:03:27.058Z,4.30
2018-11-03T04:04:01.159Z,4.30
2018-11-03T04:04:35.363Z,4.30
2018-11-03T04:05:09.855Z,4.30
2018-11-03T04:05:43.971Z,4.30
2018-11-03T04:06:18.317Z,4.30
2018-11-03T04:06:52.769Z,4.30
2018-11-03T04:07:27.219Z,4.30
2018-11-03T04:08:01.318Z,4.30
2018-11-03T04:08:35.973Z,4.30
2018-11-03T04:09:11.114Z,4.30
2018-11-03T04:09:46.136Z,4.30
2018-11-03T04:10:20.713Z,4.30
2018-11-03T04:10:55.214Z,4.30
2018-11-03T04:11:29.532Z,4.30
2018-11-03T04:12:03.979Z,4.30
2018-11-03T04:12:38.710Z,4.30
2018-11-03T04:13:12.814Z,4.30
2018-11-03T04:13:47.161Z,4.30
2018-11-03T04:14:21.588Z,4.30
2018-11-03T04:14:55.771Z,4.30
2018-11-03T04:15:30.704Z,4.30
2018-11-03T04:16:05.389Z,4.40
2018-11-03T04:16:41.227Z,4.40
2018-11-03T04:17:15.450Z,4.40
2018-11-03T04:17:49.693Z,4.40
2018-11-03T04:18:24.443Z,4.40
2018-11-03T04:18:59.025Z,4.40
2018-11-03T04:19:33.165Z,4.40
2018-11-03T04:20:07.874Z,4.40
2018-11-03T04:20:42.142Z,4.40
2018-11-03T04:21:20.618Z,4.40
2018-11-03T04:21:54.880Z,4.40
2018-11-03T04:22:29.082Z,4.40
2018-11-03T04:23:03.630Z,4.40
2018-11-03T04:23:37.852Z,4.40
2018-11-03T04:24:12.282Z,4.40
2018-11-03T04:24:46.756Z,4.40
2018-11-03T04:25:21.018Z,4.40
2018-11-03T04:25:55.482Z,4.40
2018-11-03T04:26:30.780Z,4.40
2018-11-03T04:27:05.144Z,4.40
2018-11-03T04:27:39.253Z,4.40
2018-11-03T04:28:13.552Z,4.40
2018-11-03T04:28:47.688Z,4.40
2018-11-03T04:29:21.798Z,4.40
2018-11-03T04:29:55.896Z,4.40
2018-11-03T04:30:30.017Z,4.40
2018-11-03T04:31:04.483Z,4.30
2018-11-03T04:31:38.569Z,4.40
2018-11-03T04:32:12.932Z,4.30
2018-11-03T04:32:47.028Z,4.30
2018-11-03T04:33:21.363Z,4.40
2018-11-03T04:33:55.617Z,4.40
2018-11-03T04:34:29.954Z,4.40
2018-11-03T04:35:04.074Z,4.30
2018-11-03T04:35:38.184Z,4.30
2018-11-03T04:36:12.656Z,4.30
2018-11-03T04:36:46.889Z,4.30
2018-11-03T04:37:21.267Z,4.30
2018-11-03T04:37:55.366Z,4.30
2018-11-03T04:41:01.668Z,4.30
2018-11-03T04:41:36.279Z,4.30
2018-11-03T04:42:10.768Z,4.30
2018-11-03T04:42:51.816Z,4.30
2018-11-03T04:43:25.914Z,4.30
2018-11-03T04:44:00.052Z,4.20
2018-11-03T04:44:34.198Z,4.20
2018-11-03T04:45:09.104Z,4.20
2018-11-03T04:45:43.198Z,4.20
2018-11-03T04:46:17.318Z,4.20
2018-11-03T04:46:51.764Z,4.20
2018-11-03T04:47:25.878Z,4.20
2018-11-03T04:48:00.010Z,4.20
2018-11-03T04:48:34.518Z,4.20
2018-11-03T04:49:08.630Z,4.20
2018-11-03T04:50:48.186Z,4.20
2018-11-03T04:51:22.270Z,4.20
2018-11-03T04:51:56.378Z,4.20
2018-11-03T04:52:30.598Z,4.20
2018-11-03T04:53:05.072Z,4.20
2018-11-03T04:53:39.181Z,4.20
2018-11-03T04:54:13.312Z,4.20
2018-11-03T04:54:47.422Z,4.20
2018-11-03T04:55:21.645Z,4.10
2018-11-03T04:55:56.284Z,4.20
2018-11-03T04:56:30.384Z,4.20
2018-11-03T04:57:04.968Z,4.10
2018-11-03T04:57:39.055Z,4.20
2018-11-03T04:58:13.552Z,4.20
2018-11-03T04:58:47.624Z,4.10
2018-11-03T04:59:21.716Z,4.10
2018-11-03T04:59:55.815Z,4.10
2018-11-03T05:00:30.599Z,4.10
2018-11-03T05:01:04.786Z,4.20
2018-11-03T05:01:39.238Z,4.10
2018-11-03T05:02:13.636Z,4.10
2018-11-03T05:02:47.736Z,4.10
2018-11-03T05:03:22.126Z,4.10
2018-11-03T05:03:56.248Z,4.10
2018-11-03T05:04:30.632Z,4.10
2018-11-03T05:05:04.917Z,4.10
2018-11-03T05:05:39.058Z,4.10
2018-11-03T05:06:13.513Z,4.10
2018-11-03T05:06:48.076Z,4.10
2018-11-03T05:07:22.584Z,4.00
2018-11-03T05:07:56.756Z,4.10
2018-11-03T05:08:31.212Z,4.10
2018-11-03T05:09:08.142Z,4.00
2018-11-03T05:09:42.344Z,4.00
2018-11-03T05:10:16.935Z,4.00
2018-11-03T05:10:51.238Z,4.00
2018-11-03T05:16:31.102Z,4.00
2018-11-03T05:17:06.550Z,3.90
2018-11-03T05:17:40.672Z,3.90
2018-11-03T05:18:14.808Z,3.90
2018-11-03T05:18:48.921Z,3.90
2018-11-03T05:19:23.004Z,3.90
2018-11-03T05:19:57.158Z,3.90
2018-11-03T05:20:31.498Z,3.90
2018-11-03T05:21:05.839Z,3.90
2018-11-03T05:21:40.130Z,3.90
2018-11-03T05:22:14.496Z,3.90
2018-11-03T05:22:48.634Z,3.80
2018-11-03T05:23:23.007Z,3.80
2018-11-03T05:23:57.348Z,3.80
2018-11-03T05:24:31.662Z,3.80
2018-11-03T05:25:05.962Z,3.80
2018-11-03T05:25:40.299Z,3.80
2018-11-03T05:26:14.435Z,3.80
2018-11-03T05:26:48.517Z,3.80
2018-11-03T05:27:23.316Z,3.80
2018-11-03T05:27:57.861Z,3.80
2018-11-03T05:28:31.936Z,3.80
2018-11-03T05:29:06.386Z,3.80
2018-11-03T05:29:40.490Z,3.80
2018-11-03T05:30:14.578Z,3.80
2018-11-03T05:30:48.764Z,3.80
2018-11-03T05:31:22.882Z,3.80
2018-11-03T05:31:57.525Z,3.80
2018-11-03T05:32:31.846Z,3.80
2018-11-03T05:33:06.196Z,3.70
2018-11-03T05:33:40.784Z,3.80
2018-11-03T05:34:14.895Z,3.80
2018-11-03T05:34:48.994Z,3.70
2018-11-03T05:35:23.148Z,3.70
2018-11-03T05:35:57.308Z,3.70
2018-11-03T05:36:31.398Z,3.70
2018-11-03T05:37:06.160Z,3.70
2018-11-03T05:37:40.644Z,3.70
2018-11-03T05:38:14.746Z,3.70
2018-11-03T05:38:48.994Z,3.70
2018-11-03T05:39:23.122Z,3.70
2018-11-03T05:39:57.305Z,3.70
2018-11-03T05:40:31.606Z,3.70
2018-11-03T05:41:06.219Z,3.70
2018-11-03T05:41:40.750Z,3.70
2018-11-03T05:42:15.066Z,3.70
2018-11-03T05:42:49.148Z,3.70
2018-11-03T05:43:23.280Z,3.70
2018-11-03T05:43:57.453Z,3.70
2018-11-03T05:44:31.550Z,3.70
2018-11-03T05:45:05.658Z,3.70
2018-11-03T05:45:40.380Z,3.70
2018-11-03T05:46:14.606Z,3.70
2018-11-03T05:46:49.233Z,3.70
2018-11-03T05:47:23.367Z,3.70
2018-11-03T05:47:57.668Z,3.60
2018-11-03T05:48:31.778Z,3.60
2018-11-03T05:49:06.200Z,3.70
2018-11-03T05:49:40.300Z,3.70
2018-11-03T05:50:14.393Z,3.60
2018-11-03T05:50:48.524Z,3.60
2018-11-03T05:51:29.782Z,3.60
2018-11-03T05:52:03.876Z,3.60
2018-11-03T05:52:38.000Z,3.60
2018-11-03T05:53:12.115Z,3.60
2018-11-03T05:53:46.235Z,3.60
2018-11-03T05:54:20.661Z,3.60
2018-11-03T05:54:54.781Z,3.60
2018-11-03T05:55:28.880Z,3.60
2018-11-03T05:56:03.293Z,3.60
2018-11-03T05:56:37.635Z,3.60
2018-11-03T05:57:11.741Z,3.60
2018-11-03T05:57:46.362Z,3.60
2018-11-03T05:58:20.519Z,3.60
2018-11-03T05:58:55.412Z,3.60
2018-11-03T05:59:30.026Z,3.60
2018-11-03T06:00:04.479Z,3.60
2018-11-03T06:00:38.575Z,3.60
2018-11-03T06:01:12.679Z,3.60
2018-11-03T06:01:46.829Z,3.60
2018-11-03T06:02:20.951Z,3.60
2018-11-03T06:02:56.486Z,3.60
2018-11-03T06:03:30.574Z,3.60
2018-11-03T06:04:05.137Z,3.60
2018-11-03T06:04:39.232Z,3.60
2018-11-03T06:05:13.665Z,3.60
2018-11-03T06:05:47.887Z,3.60
2018-11-03T06:06:21.994Z,3.60
2018-11-03T06:06:56.709Z,3.60
2018-11-03T06:07:30.797Z,3.60
2018-11-03T06:08:05.561Z,3.60
2018-11-03T06:08:40.041Z,3.60
2018-11-03T06:09:14.359Z,3.60
2018-11-03T06:09:48.472Z,3.60
2018-11-03T06:10:23.279Z,3.60
2018-11-03T06:10:57.724Z,3.60
2018-11-03T06:11:32.017Z,3.60
2018-11-03T06:12:06.870Z,3.60
2018-11-03T06:12:40.950Z,3.60
2018-11-03T06:13:15.326Z,3.60
2018-11-03T06:13:49.441Z,3.60
2018-11-03T06:14:23.785Z,3.60
2018-11-03T06:14:57.913Z,3.60
2018-11-03T06:15:32.361Z,3.60
2018-11-03T06:16:06.567Z,3.60
2018-11-03T06:16:40.688Z,3.60
2018-11-03T06:17:14.813Z,3.60
2018-11-03T06:17:48.925Z,3.60
2018-11-03T06:18:23.009Z,3.60
2018-11-03T06:18:57.126Z,3.60
2018-11-03T06:19:31.249Z,3.60
2018-11-03T06:20:06.501Z,3.60
2018-11-03T06:20:40.609Z,3.60
2018-11-03T06:21:14.759Z,3.60
2018-11-03T06:21:48.845Z,3.60
2018-11-03T06:22:23.030Z,3.60
2018-11-03T06:22:57.700Z,3.60
2018-11-03T06:23:31.974Z,3.60
2018-11-03T06:24:06.313Z,3.60
2018-11-03T06:24:40.619Z,3.60
2018-11-03T06:25:14.760Z,3.60
2018-11-03T06:25:49.185Z,3.60
2018-11-03T06:26:23.328Z,3.60
2018-11-03T06:26:57.951Z,3.60
2018-11-03T06:27:32.093Z,3.60
2018-11-03T06:28:06.339Z,3.60
2018-11-03T06:28:40.569Z,3.60
2018-11-03T06:29:14.682Z,3.60
2018-11-03T06:29:48.776Z,3.60
2018-11-03T06:30:22.897Z,3.60
2018-11-03T06:30:57.028Z,3.60
2018-11-03T06:31:31.153Z,3.60
2018-11-03T06:32:06.261Z,3.60
2018-11-03T06:32:40.409Z,3.60
2018-11-03T06:33:14.725Z,3.60
2018-11-03T06:33:48.812Z,3.60
2018-11-03T06:34:23.113Z,3.60
2018-11-03T06:34:57.267Z,3.70
2018-11-03T06:35:31.515Z,3.60
2018-11-03T06:36:05.964Z,3.70
2018-11-03T06:36:40.335Z,3.70
2018-11-03T06:37:14.616Z,3.70
2018-11-03T06:37:48.748Z,3.70
2018-11-03T06:38:23.313Z,3.70
2018-11-03T06:38:57.753Z,3.70
2018-11-03T06:39:32.093Z,3.70
2018-11-03T06:40:06.748Z,3.70
2018-11-03T06:40:41.203Z,3.70
2018-11-03T06:41:17.593Z,3.70
2018-11-03T06:41:51.695Z,3.70
2018-11-03T06:42:26.127Z,3.70
2018-11-03T06:43:00.601Z,3.70
2018-11-03T06:43:34.685Z,3.80
2018-11-03T06:44:09.129Z,3.80
2018-11-03T06:44:43.580Z,3.80
2018-11-03T06:45:17.682Z,3.80
2018-11-03T06:45:51.808Z,3.80
2018-11-03T06:46:25.931Z,3.80
2018-11-03T06:47:00.464Z,3.80
2018-11-03T06:47:35.022Z,3.80
2018-11-03T06:48:09.319Z,3.80
2018-11-03T06:48:43.560Z,3.80
2018-11-03T06:49:19.608Z,3.80
2018-11-03T06:49:53.937Z,3.80
2018-11-03T06:50:28.074Z,3.90
2018-11-03T06:51:02.411Z,3.90
2018-11-03T06:51:36.546Z,3.90
2018-11-03T06:52:11.518Z,3.90
2018-11-03T06:52:45.816Z,3.90
2018-11-03T06:53:19.988Z,3.90
2018-11-03T06:53:54.103Z,3.90
2018-11-03T06:54:28.205Z,3.90
2018-11-03T06:55:02.462Z,3.90
2018-11-03T06:55:36.568Z,4.00
2018-11-03T06:56:11.047Z,4.00
2018-11-03T06:56:45.513Z,4.00
2018-11-03T06:57:21.155Z,4.00
2018-11-03T06:57:55.283Z,4.00
2018-11-03T06:58:29.423Z,4.00
2018-11-03T06:59:03.708Z,4.00
2018-11-03T06:59:37.795Z,4.00
2018-11-03T07:00:12.221Z,4.10
2018-11-03T07:00:46.333Z,4.00
2018-11-03T07:01:20.434Z,4.10
2018-11-03T07:01:54.545Z,4.10
2018-11-03T07:02:28.639Z,4.10
2018-11-03T07:03:02.905Z,4.10
2018-11-03T07:03:37.053Z,4.10
2018-11-03T07:04:11.815Z,4.10
2018-11-03T07:04:45.900Z,4.10
2018-11-03T07:05:20.056Z,4.10
2018-11-03T07:05:54.305Z,4.10
2018-11-03T07:06:28.409Z,4.20
2018-11-03T07:07:02.522Z,4.20
2018-11-03T07:07:36.636Z,4.20
2018-11-03T07:08:11.067Z,4.20
2018-11-03T07:08:45.528Z,4.20
2018-11-03T07:09:19.627Z,4.20
2018-11-03T07:09:53.936Z,4.30
2018-11-03T07:10:28.059Z,4.20
2018-11-03T07:11:02.325Z,4.30
2018-11-03T07:11:37.169Z,4.30
2018-11-03T07:12:11.405Z,4.30
2018-11-03T07:12:46.164Z,4.30
2018-11-03T07:13:20.423Z,4.30
2018-11-03T07:13:54.674Z,4.30
2018-11-03T07:14:28.773Z,4.30
2018-11-03T07:15:02.875Z,4.40
2018-11-03T07:15:36.973Z,4.40
2018-11-03T07:16:11.064Z,4.40
2018-11-03T07:16:45.179Z,4.40
2018-11-03T07:17:19.274Z,4.40
2018-11-03T07:17:53.377Z,4.40
2018-11-03T07:18:27.473Z,4.50
2018-11-03T07:19:01.599Z,4.50
2018-11-03T07:19:35.697Z,4.50
2018-11-03T07:20:11.845Z,4.50
2018-11-03T07:20:45.951Z,4.50
2018-11-03T07:21:20.056Z,4.50
2018-11-03T07:21:54.671Z,4.50
2018-11-03T07:22:28.796Z,4.50
2018-11-03T07:23:02.929Z,4.50
2018-11-03T07:23:37.249Z,4.50
2018-11-03T07:24:11.391Z,4.60
2018-11-03T07:24:45.484Z,4.60
2018-11-03T07:25:19.805Z,4.60
2018-11-03T07:25:53.942Z,4.60
2018-11-03T07:26:28.062Z,4.60
2018-11-03T07:27:02.161Z,4.60
2018-11-03T07:27:36.262Z,4.60
2018-11-03T07:28:10.700Z,4.70
2018-11-03T07:28:44.857Z,4.70
2018-11-03T07:29:19.216Z,4.70
2018-11-03T07:29:53.584Z,4.70
2018-11-03T07:30:27.815Z,4.70
2018-11-03T07:31:02.100Z,4.80
2018-11-03T07:31:36.755Z,4.80
2018-11-03T07:32:11.103Z,4.80
2018-11-03T07:32:45.625Z,4.80
2018-11-03T07:33:19.951Z,4.80
2018-11-03T07:33:54.182Z,4.90
2018-11-03T07:34:28.555Z,4.90
2018-11-03T07:35:02.665Z,4.90
2018-11-03T07:35:37.014Z,4.90
2018-11-03T07:36:11.213Z,5.00
2018-11-03T07:36:45.670Z,5.00
2018-11-03T07:37:20.150Z,5.00
2018-11-03T07:37:54.253Z,5.00
2018-11-03T07:38:28.361Z,5.00
2018-11-03T07:39:02.499Z,5.00
2018-11-03T07:39:36.703Z,5.10
2018-11-03T07:40:11.554Z,5.10
2018-11-03T07:40:45.997Z,5.10
2018-11-03T07:41:20.365Z,5.10
2018-11-03T07:41:54.634Z,5.10
2018-11-03T07:42:28.864Z,5.20
2018-11-03T07:43:03.121Z,5.20
2018-11-03T07:43:37.241Z,5.20
2018-11-03T07:44:11.355Z,5.20
2018-11-03T07:44:45.527Z,5.20
2018-11-03T07:45:21.858Z,5.30
2018-11-03T07:45:55.952Z,5.30
2018-11-03T07:46:30.773Z,5.30
2018-11-03T07:47:04.949Z,5.30
2018-11-03T07:47:39.091Z,5.40